Time;durP1;ratioP1;P1;durP2;ratioP2;P2;SDS_P1;SDS_P2;PMS_P1;PMS_P2;Temp;Humidity;BMP_temperature;BMP_pressure;BME280_temperature;BME280_humidity;BME280_pressure;Samples;Min_cycle;Max_cycle;Signal;HPM_P1;HPM_P2
2023/01/26 00:00:29;;;;;;;130.50;31.13;;;;;;;-145.18;100.00;60484.78;5064229;28;20091;-68
2023/01/26 00:02:55;;;;;;;134.33;31.67;;;;;;;-145.18;100.00;60484.78;5064735;28;20028;-68
2023/01/26 00:05:20;;;;;;;120.40;28.70;;;;;;;-145.18;100.00;60484.78;5057809;28;20113;-68
2023/01/26 00:07:46;;;;;;;140.90;31.40;;;;;;;-145.18;100.00;60484.78;5052399;28;20528;-68
2023/01/26 00:10:11;;;;;;;139.07;31.00;;;;;;;-145.18;100.00;60484.78;5054231;28;20032;-68
2023/01/26 00:12:37;;;;;;;135.67;30.73;;;;;;;-145.18;100.00;60484.78;5053697;28;20477;-68
2023/01/26 00:15:03;;;;;;;122.90;30.10;;;;;;;-145.18;100.00;60484.78;5050716;28;20025;-68
2023/01/26 00:17:28;;;;;;;141.63;32.03;;;;;;;-145.18;100.00;60484.78;5053714;28;20255;-68
2023/01/26 00:19:57;;;;;;;133.97;28.47;;;;;;;-145.18;100.00;60484.78;5035936;28;20025;-68
2023/01/26 00:22:25;;;;;;;154.30;32.63;;;;;;;-145.18;100.00;60484.78;5053905;28;20021;-68
2023/01/26 00:24:50;;;;;;;129.97;29.07;;;;;;;-145.18;100.00;60484.78;5053034;28;20021;-69
2023/01/26 00:27:16;;;;;;;123.67;28.00;;;;;;;-145.18;100.00;60484.78;5052630;28;20353;-68
2023/01/26 00:29:41;;;;;;;161.03;33.40;;;;;;;-145.18;100.00;60484.78;5055643;28;20025;-67
2023/01/26 00:32:06;;;;;;;150.83;33.37;;;;;;;-145.18;100.00;60484.78;5065704;28;20013;-68
2023/01/26 00:34:32;;;;;;;145.70;30.90;;;;;;;-145.18;100.00;60484.78;5057440;28;20522;-68
2023/01/26 00:36:57;;;;;;;155.60;33.30;;;;;;;-145.18;100.00;60484.78;5054306;28;20020;-68
2023/01/26 00:39:22;;;;;;;167.77;33.73;;;;;;;-145.18;100.00;60484.78;5060372;28;20048;-68
2023/01/26 00:42:08;;;;;;;159.63;34.13;;;;;;;-145.18;100.00;60484.78;5061605;28;20418;-68
2023/01/26 00:44:37;;;;;;;138.90;30.43;;;;;;;-145.18;100.00;60484.78;5063437;28;20013;-68
2023/01/26 00:47:04;;;;;;;161.90;35.10;;;;;;;-145.18;100.00;60484.78;5057445;28;20040;-68
2023/01/26 00:49:30;;;;;;;158.63;32.70;;;;;;;-145.18;100.00;60484.78;5052872;28;20048;-68
2023/01/26 00:51:55;;;;;;;180.13;36.00;;;;;;;-145.18;100.00;60484.78;5069663;28;20055;-68
2023/01/26 00:54:21;;;;;;;192.63;36.43;;;;;;;-145.18;100.00;60484.78;5058234;28;20066;-68
2023/01/26 00:56:46;;;;;;;155.00;34.90;;;;;;;-145.18;100.00;60484.78;5053148;28;20480;-68
2023/01/26 00:59:12;;;;;;;186.53;36.87;;;;;;;-145.18;100.00;60484.78;5047952;28;20030;-68
2023/01/26 01:01:37;;;;;;;161.20;33.30;;;;;;;-145.18;100.00;60484.78;5071500;28;20028;-68
2023/01/26 01:04:02;;;;;;;176.70;33.87;;;;;;;-145.18;100.00;60484.78;5055511;28;20041;-68
2023/01/26 01:06:28;;;;;;;162.70;32.00;;;;;;;-145.18;100.00;60484.78;5052814;28;20103;-68
2023/01/26 01:08:53;;;;;;;176.03;33.63;;;;;;;-145.18;100.00;60484.78;5052113;28;20032;-68
2023/01/26 01:11:18;;;;;;;140.23;27.53;;;;;;;-145.18;100.00;60484.78;5052618;28;20108;-68
2023/01/26 01:13:44;;;;;;;164.90;33.50;;;;;;;-145.18;100.00;60484.78;5050653;28;20025;-68
2023/01/26 01:16:12;;;;;;;183.13;33.07;;;;;;;-145.18;100.00;60484.78;5053067;28;20094;-68
2023/01/26 01:18:38;;;;;;;157.67;31.67;;;;;;;-145.18;100.00;60484.78;5052795;28;20051;-68
2023/01/26 01:21:12;;;;;;;183.13;34.83;;;;;;;-145.18;100.00;60484.78;5051684;28;20017;-69
2023/01/26 01:23:38;;;;;;;200.07;36.07;;;;;;;-145.18;100.00;60484.78;5054672;28;20073;-68
2023/01/26 01:26:05;;;;;;;192.37;35.43;;;;;;;-145.18;100.00;60484.78;5030663;28;20427;-68
2023/01/26 01:28:31;;;;;;;168.37;31.77;;;;;;;-145.18;100.00;60484.78;5051509;28;20024;-68
2023/01/26 01:30:57;;;;;;;189.10;35.27;;;;;;;-145.18;100.00;60484.78;5048750;28;20024;-68
2023/01/26 01:33:23;;;;;;;206.40;37.53;;;;;;;-145.18;100.00;60484.78;5063087;28;20024;-68
2023/01/26 01:35:59;;;;;;;181.87;33.57;;;;;;;-145.18;100.00;60484.78;5051173;28;20034;-68
2023/01/26 01:38:25;;;;;;;184.67;33.40;;;;;;;-145.18;100.00;60484.78;5049762;28;20041;-68
2023/01/26 01:40:51;;;;;;;203.90;35.70;;;;;;;-145.18;100.00;60484.78;5061300;28;20085;-68
2023/01/26 01:43:16;;;;;;;195.03;34.67;;;;;;;-145.18;100.00;60484.78;5052279;28;20196;-68
2023/01/26 01:45:46;;;;;;;164.40;31.30;;;;;;;-145.18;100.00;60484.78;5052807;28;20485;-68
2023/01/26 01:48:34;;;;;;;187.07;33.13;;;;;;;-145.18;100.00;60484.78;5070429;28;20036;-68
2023/01/26 01:51:05;;;;;;;194.07;35.93;;;;;;;-145.18;100.00;60484.78;5064957;28;20116;-68
2023/01/26 01:53:36;;;;;;;193.27;34.07;;;;;;;-145.18;100.00;60484.78;5049901;28;20021;-68
2023/01/26 01:56:06;;;;;;;177.65;32.05;;;;;;;-145.18;100.00;60484.78;5055911;28;20029;-68
2023/01/26 01:58:36;;;;;;;193.07;36.17;;;;;;;-145.18;100.00;60484.78;5052123;28;20602;-68
2023/01/26 02:01:01;;;;;;;191.57;34.63;;;;;;;-145.18;100.00;60484.78;5064704;28;20524;-68
2023/01/26 02:03:28;;;;;;;157.47;28.63;;;;;;;-145.18;100.00;60484.78;5084514;22;20029;-71
2023/01/26 02:06:02;;;;;;;195.47;32.50;;;;;;;-145.18;100.00;60484.78;5042250;28;20586;-70
2023/01/26 02:08:41;;;;;;;193.30;33.97;;;;;;;-145.18;100.00;60484.78;5046719;28;20060;-71
2023/01/26 02:11:22;;;;;;;195.50;34.27;;;;;;;-145.18;100.00;60484.78;5044003;28;20041;-70
2023/01/26 02:13:48;;;;;;;167.27;31.80;;;;;;;-145.18;100.00;60484.78;5035495;28;20029;-71
2023/01/26 02:16:15;;;;;;;201.90;35.70;;;;;;;-145.18;100.00;60484.78;5031920;28;20026;-70
2023/01/26 02:18:42;;;;;;;189.73;34.40;;;;;;;-145.18;100.00;60484.78;5015923;28;20029;-71
2023/01/26 02:21:13;;;;;;;194.20;34.27;;;;;;;-145.18;100.00;60484.78;5050333;28;20033;-70
2023/01/26 02:23:53;;;;;;;189.23;34.97;;;;;;;-145.18;100.00;60484.78;5045672;28;20068;-70
2023/01/26 02:26:22;;;;;;;195.33;34.97;;;;;;;-145.18;100.00;60484.78;5036412;28;20396;-69
2023/01/26 02:28:48;;;;;;;182.37;32.37;;;;;;;-145.18;100.00;60484.78;5036481;28;20477;-69
2023/01/26 02:31:14;;;;;;;190.60;33.80;;;;;;;-145.18;100.00;60484.78;5040345;28;20471;-69
2023/01/26 02:33:41;;;;;;;200.20;34.50;;;;;;;-145.18;100.00;60484.78;5036316;28;20080;-70
2023/01/26 02:36:09;;;;;;;186.70;31.43;;;;;;;-145.18;100.00;60484.78;5044329;28;20029;-69
2023/01/26 02:38:52;;;;;;;152.67;26.07;;;;;;;-145.18;100.00;60484.78;5038850;28;20037;-69
2023/01/26 02:42:37;;;;;;;140.40;30.03;;;;;;;-145.18;100.00;60484.78;5032758;28;20033;-70
2023/01/26 02:44:07;;;;;;;180.17;31.67;;;;;;;-145.18;100.00;60484.78;5034490;28;20489;-70
2023/01/26 02:46:32;;;;;;;150.80;28.30;;;;;;;-145.18;100.00;60484.78;5036162;28;20044;-70
2023/01/26 02:51:41;;;;;;;140.03;29.83;;;;;;;-145.18;100.00;60484.78;5031725;28;20126;-69
2023/01/26 02:54:07;;;;;;;174.53;31.90;;;;;;;-145.18;100.00;60484.78;5038968;28;20029;-69
2023/01/26 02:56:32;;;;;;;133.53;26.73;;;;;;;-145.18;100.00;60484.78;5050054;28;20392;-70
2023/01/26 02:58:58;;;;;;;116.40;24.00;;;;;;;-145.18;100.00;60484.78;5044680;28;20024;-70
2023/01/26 03:01:23;;;;;;;164.90;31.00;;;;;;;-145.18;100.00;60484.78;5036588;28;20108;-70
2023/01/26 03:03:48;;;;;;;177.20;32.33;;;;;;;-145.18;100.00;60484.78;5043379;28;20099;-71
2023/01/26 03:06:14;;;;;;;191.60;31.30;;;;;;;-145.18;100.00;60484.78;5047859;28;20041;-70
2023/01/26 03:08:40;;;;;;;172.83;30.43;;;;;;;-145.18;100.00;60484.78;5048248;28;20415;-70
2023/01/26 03:11:07;;;;;;;169.17;28.57;;;;;;;-145.18;100.00;60484.78;5031699;28;20031;-70
2023/01/26 03:13:33;;;;;;;192.73;31.87;;;;;;;-145.18;100.00;60484.78;5051197;28;20108;-70
2023/01/26 03:16:05;;;;;;;186.93;32.27;;;;;;;-145.18;100.00;60484.78;5054501;28;20447;-69
2023/01/26 03:29:30;;;;;;;168.20;26.83;;;;;;;-145.18;100.00;60484.78;5054056;28;20206;-70
2023/01/26 03:31:58;;;;;;;221.70;34.53;;;;;;;-145.18;100.00;60484.78;5054186;28;20036;-68
2023/01/26 03:34:23;;;;;;;221.73;33.33;;;;;;;-145.18;100.00;60484.78;5053766;28;20029;-71
2023/01/26 03:36:49;;;;;;;199.70;32.87;;;;;;;-145.18;100.00;60484.78;5051816;28;20044;-71
2023/01/26 03:58:29;;;;;;;201.53;32.47;;;;;;;-145.18;100.00;60484.78;5053163;28;20094;-73
2023/01/26 04:00:55;;;;;;;158.73;28.27;;;;;;;-145.18;100.00;60484.78;5052404;28;20063;-73
2023/01/26 04:08:48;;;;;;;193.40;33.43;;;;;;;-145.18;100.00;60484.78;5053287;28;20098;-73
2023/01/26 04:11:13;;;;;;;226.70;34.93;;;;;;;-145.18;100.00;60484.78;5051550;28;20029;-73
2023/01/26 04:21:50;;;;;;;216.17;32.90;;;;;;;-145.18;100.00;60484.78;5053219;28;20079;-73
2023/01/26 04:24:16;;;;;;;173.90;29.23;;;;;;;-145.18;100.00;60484.78;5051765;28;20028;-73
2023/01/26 04:26:42;;;;;;;176.07;29.87;;;;;;;-145.18;100.00;60484.78;5051800;28;20025;-73
2023/01/26 04:29:12;;;;;;;155.40;27.47;;;;;;;-145.18;100.00;60484.78;5052762;28;20029;-73
2023/01/26 04:31:39;;;;;;;186.20;30.20;;;;;;;-145.18;100.00;60484.78;5043305;28;20468;-73
2023/01/26 04:34:06;;;;;;;181.17;29.90;;;;;;;-145.18;100.00;60484.78;5052217;28;20020;-73
2023/01/26 04:36:33;;;;;;;182.87;29.43;;;;;;;-145.18;100.00;60484.78;5051767;28;20044;-71
2023/01/26 04:38:58;;;;;;;174.30;29.73;;;;;;;-145.18;100.00;60484.78;5052054;28;20461;-71
2023/01/26 04:41:24;;;;;;;124.40;20.77;;;;;;;-145.18;100.00;60484.78;5052804;28;20069;-71
2023/01/26 04:43:50;;;;;;;167.83;29.90;;;;;;;-145.18;100.00;60484.78;5048911;28;20021;-71
2023/01/26 04:46:16;;;;;;;123.77;22.87;;;;;;;-145.18;100.00;60484.78;5052285;28;20021;-73
2023/01/26 04:48:41;;;;;;;149.87;25.43;;;;;;;-145.18;100.00;60484.78;5051101;28;20024;-73
2023/01/26 04:51:15;;;;;;;182.93;29.57;;;;;;;-145.18;100.00;60484.78;5052631;28;20020;-73
2023/01/26 04:53:40;;;;;;;177.10;27.87;;;;;;;-145.18;100.00;60484.78;5051844;28;20033;-73
2023/01/26 04:56:08;;;;;;;158.83;26.17;;;;;;;-145.18;100.00;60484.78;5050163;28;20048;-71
2023/01/26 04:58:33;;;;;;;161.13;26.27;;;;;;;-145.18;100.00;60484.78;5051871;28;20033;-71
2023/01/26 05:00:59;;;;;;;176.70;29.80;;;;;;;-145.18;100.00;60484.78;5050044;28;20469;-71
2023/01/26 05:03:25;;;;;;;168.90;28.53;;;;;;;-145.18;100.00;60484.78;5043885;28;20523;-71
2023/01/26 05:05:53;;;;;;;154.97;25.93;;;;;;;-145.18;100.00;60484.78;5051434;28;20025;-71
2023/01/26 05:08:20;;;;;;;148.13;26.57;;;;;;;-145.18;100.00;60484.78;5052288;28;20084;-71
2023/01/26 05:10:46;;;;;;;162.70;25.43;;;;;;;-145.18;100.00;60484.78;5050760;28;20120;-73
2023/01/26 05:13:11;;;;;;;162.47;26.90;;;;;;;-145.18;100.00;60484.78;5052171;28;20035;-73
2023/01/26 05:15:37;;;;;;;140.37;26.73;;;;;;;-145.18;100.00;60484.78;5051645;28;20021;-73
2023/01/26 05:18:03;;;;;;;141.80;24.93;;;;;;;-145.18;100.00;60484.78;5051273;28;20033;-71
2023/01/26 05:20:29;;;;;;;125.23;22.50;;;;;;;-145.18;100.00;60484.78;5050833;28;20025;-70
2023/01/26 05:22:54;;;;;;;126.27;22.67;;;;;;;-145.18;100.00;60484.78;5052055;28;20374;-70
2023/01/26 05:25:20;;;;;;;130.33;22.80;;;;;;;-145.18;100.00;60484.78;5046292;28;20477;-70
2023/01/26 05:27:46;;;;;;;119.50;22.40;;;;;;;-145.18;100.00;60484.78;5046325;28;20033;-71
2023/01/26 05:30:12;;;;;;;109.50;20.67;;;;;;;-145.18;100.00;60484.78;5050952;28;20040;-71
2023/01/26 05:32:38;;;;;;;102.47;18.80;;;;;;;-145.18;100.00;60484.78;5044886;28;20466;-73
2023/01/26 05:35:05;;;;;;;127.93;23.47;;;;;;;-145.18;100.00;60484.78;5049054;28;20029;-71
2023/01/26 05:37:31;;;;;;;108.07;19.77;;;;;;;-145.18;100.00;60484.78;5048765;28;20043;-71
2023/01/26 05:39:56;;;;;;;97.33;19.83;;;;;;;-145.18;100.00;60484.78;5049095;28;20029;-71
2023/01/26 05:42:22;;;;;;;109.90;20.47;;;;;;;-145.18;100.00;60484.78;5051795;28;20021;-71
2023/01/26 05:44:48;;;;;;;112.37;22.53;;;;;;;-145.18;100.00;60484.78;5051291;28;20032;-71
2023/01/26 05:47:14;;;;;;;112.63;20.27;;;;;;;-145.18;100.00;60484.78;5051369;28;20024;-71
2023/01/26 05:49:42;;;;;;;93.83;18.27;;;;;;;-145.18;100.00;60484.78;5049999;28;20029;-70
2023/01/26 05:52:13;;;;;;;116.33;21.43;;;;;;;-145.18;100.00;60484.78;5049413;28;20141;-71
2023/01/26 05:54:39;;;;;;;106.18;20.35;;;;;;;-145.18;100.00;60484.78;5050439;28;20025;-71
2023/01/26 05:57:05;;;;;;;111.60;19.77;;;;;;;-145.18;100.00;60484.78;5049516;28;20094;-71
2023/01/26 05:59:30;;;;;;;118.07;21.03;;;;;;;-145.18;100.00;60484.78;5050334;28;20025;-71
2023/01/26 06:01:56;;;;;;;109.13;20.43;;;;;;;-145.18;100.00;60484.78;5047409;28;20025;-71
2023/01/26 06:04:22;;;;;;;95.83;18.30;;;;;;;-145.18;100.00;60484.78;5050601;28;20400;-71
2023/01/26 06:06:47;;;;;;;104.37;19.20;;;;;;;-145.18;100.00;60484.78;5050255;28;20373;-71
2023/01/26 06:09:13;;;;;;;76.97;16.50;;;;;;;-145.18;100.00;60484.78;5049607;28;20028;-71
2023/01/26 06:11:38;;;;;;;91.77;18.50;;;;;;;-145.18;100.00;60484.78;5026460;28;20020;-71
2023/01/26 06:14:03;;;;;;;76.63;16.13;;;;;;;-145.18;100.00;60484.78;5044669;28;20021;-71
2023/01/26 06:16:29;;;;;;;77.67;15.93;;;;;;;-145.18;100.00;60484.78;5048841;28;20037;-71
2023/01/26 06:18:54;;;;;;;72.83;15.20;;;;;;;-145.18;100.00;60484.78;5050843;28;20652;-71
2023/01/26 06:21:19;;;;;;;74.70;16.23;;;;;;;-145.18;100.00;60484.78;5050750;28;20024;-70
2023/01/26 06:23:45;;;;;;;81.10;15.27;;;;;;;-145.18;100.00;60484.78;5049815;28;20029;-71
2023/01/26 06:26:10;;;;;;;91.93;18.43;;;;;;;-145.18;100.00;60484.78;5049294;28;20087;-70
2023/01/26 06:28:36;;;;;;;85.80;17.17;;;;;;;-145.18;100.00;60484.78;5049208;28;20100;-70
2023/01/26 06:31:06;;;;;;;81.10;17.30;;;;;;;-145.18;100.00;60484.78;5046213;28;20163;-71
2023/01/26 06:33:35;;;;;;;70.07;14.37;;;;;;;-145.18;100.00;60484.78;5047468;28;20422;-70
2023/01/26 06:36:02;;;;;;;71.03;14.63;;;;;;;-145.18;100.00;60484.78;5047414;28;20032;-70
2023/01/26 06:38:28;;;;;;;75.83;14.90;;;;;;;-145.18;100.00;60484.78;5046330;28;20487;-70
2023/01/26 06:40:54;;;;;;;78.47;17.07;;;;;;;-145.18;100.00;60484.78;5050577;28;20025;-70
2023/01/26 06:43:20;;;;;;;76.13;16.33;;;;;;;-145.18;100.00;60484.78;5046958;28;20033;-71
2023/01/26 06:45:46;;;;;;;68.40;16.30;;;;;;;-145.18;100.00;60484.78;5045561;28;20031;-70
2023/01/26 06:48:11;;;;;;;79.83;16.10;;;;;;;-145.18;100.00;60484.78;5041880;28;20052;-70
2023/01/26 06:50:38;;;;;;;65.63;15.07;;;;;;;-145.18;100.00;60484.78;5049341;28;20033;-70
2023/01/26 06:53:25;;;;;;;72.40;16.03;;;;;;;-145.18;100.00;60484.78;5046674;28;20021;-70
2023/01/26 06:55:51;;;;;;;64.30;13.93;;;;;;;-145.18;100.00;60484.78;5036393;28;20472;-69
2023/01/26 06:58:16;;;;;;;75.23;14.77;;;;;;;-145.18;100.00;60484.78;5046559;28;20033;-70
2023/01/26 07:00:42;;;;;;;53.80;13.10;;;;;;;-145.18;100.00;60484.78;5043189;28;20054;-70
2023/01/26 07:03:09;;;;;;;48.80;11.50;;;;;;;-145.18;100.00;60484.78;5049331;28;20036;-69
2023/01/26 07:05:35;;;;;;;50.27;12.40;;;;;;;-145.18;100.00;60484.78;5046394;28;20536;-70
2023/01/26 07:08:03;;;;;;;57.90;12.57;;;;;;;-145.18;100.00;60484.78;5051580;28;20148;-70
2023/01/26 07:10:28;;;;;;;52.23;11.70;;;;;;;-145.18;100.00;60484.78;5051510;28;20039;-70
2023/01/26 07:12:54;;;;;;;60.43;13.40;;;;;;;-145.18;100.00;60484.78;5047535;28;20123;-70
2023/01/26 07:15:19;;;;;;;56.63;13.50;;;;;;;-145.18;100.00;60484.78;5033331;28;20151;-72
2023/01/26 07:17:44;;;;;;;59.03;13.43;;;;;;;-145.18;100.00;60484.78;5037659;28;20104;-74
2023/01/26 07:20:10;;;;;;;66.50;14.57;;;;;;;-145.18;100.00;60484.78;5051358;28;20032;-71
2023/01/26 07:22:35;;;;;;;60.50;14.27;;;;;;;-145.18;100.00;60484.78;5050482;28;20029;-71
2023/01/26 07:25:01;;;;;;;59.90;14.33;;;;;;;-145.18;100.00;60484.78;5051476;28;20051;-71
2023/01/26 07:27:26;;;;;;;70.53;14.27;;;;;;;-145.18;100.00;60484.78;5048720;28;20389;-71
2023/01/26 07:29:51;;;;;;;61.13;12.97;;;;;;;-145.18;100.00;60484.78;5051251;28;20024;-71
2023/01/26 07:32:17;;;;;;;70.83;14.80;;;;;;;-145.18;100.00;60484.78;5031275;28;20528;-71
2023/01/26 07:34:42;;;;;;;71.43;14.47;;;;;;;-145.18;100.00;60484.78;5036558;28;20021;-71
2023/01/26 07:37:07;;;;;;;76.53;15.83;;;;;;;-145.18;100.00;60484.78;5050026;28;20060;-71
2023/01/26 07:39:33;;;;;;;69.67;15.23;;;;;;;-145.18;100.00;60484.78;5051225;28;20074;-71
2023/01/26 07:41:58;;;;;;;69.80;15.70;;;;;;;-145.18;100.00;60484.78;5048587;28;20021;-71
2023/01/26 07:44:24;;;;;;;76.10;15.40;;;;;;;-145.18;100.00;60484.78;5050950;28;20019;-71
2023/01/26 07:46:49;;;;;;;73.33;15.03;;;;;;;-145.18;100.00;60484.78;5050863;28;20035;-71
2023/01/26 07:49:14;;;;;;;69.13;14.90;;;;;;;-145.18;100.00;60484.78;5051281;28;20460;-71
2023/01/26 07:51:40;;;;;;;78.23;16.97;;;;;;;-145.18;100.00;60484.78;5048908;28;20399;-71
2023/01/26 07:54:06;;;;;;;67.70;14.97;;;;;;;-145.18;100.00;60484.78;5049484;28;20341;-71
2023/01/26 07:56:32;;;;;;;64.93;14.33;;;;;;;-145.18;100.00;60484.78;5049737;28;20037;-71
2023/01/26 07:58:57;;;;;;;66.80;14.80;;;;;;;-145.18;100.00;60484.78;5049393;28;20372;-71
2023/01/26 08:01:23;;;;;;;70.80;15.20;;;;;;;-145.18;100.00;60484.78;5051929;28;20036;-70
2023/01/26 08:03:50;;;;;;;76.00;15.17;;;;;;;-145.18;100.00;60484.78;5053076;28;21889;-71
2023/01/26 08:06:17;;;;;;;68.43;16.10;;;;;;;-145.18;100.00;60484.78;5050965;28;20033;-71
2023/01/26 08:08:43;;;;;;;67.23;15.20;;;;;;;-145.18;100.00;60484.78;5046202;28;20021;-70
2023/01/26 08:11:10;;;;;;;74.30;15.77;;;;;;;-145.18;100.00;60484.78;5034734;28;20362;-71
2023/01/26 08:13:36;;;;;;;87.33;16.03;;;;;;;-145.18;100.00;60484.78;5048439;28;20032;-70
2023/01/26 08:16:09;;;;;;;77.70;16.53;;;;;;;-145.18;100.00;60484.78;5054581;28;20044;-71
2023/01/26 08:18:35;;;;;;;77.57;15.83;;;;;;;-145.18;100.00;60484.78;5054242;28;20025;-70
2023/01/26 08:21:00;;;;;;;64.73;14.27;;;;;;;-145.18;100.00;60484.78;5054407;28;20024;-70
2023/01/26 08:23:26;;;;;;;65.03;13.53;;;;;;;-145.18;100.00;60484.78;5053415;28;20056;-70
2023/01/26 08:25:51;;;;;;;64.73;13.80;;;;;;;-145.18;100.00;60484.78;5053356;28;20104;-70
2023/01/26 08:28:16;;;;;;;56.33;13.17;;;;;;;-145.18;100.00;60484.78;5052405;28;20024;-70
2023/01/26 08:30:42;;;;;;;65.03;14.50;;;;;;;-145.18;100.00;60484.78;5053373;28;20421;-70
2023/01/26 08:33:07;;;;;;;77.90;16.17;;;;;;;-145.18;100.00;60484.78;5051734;28;20028;-70
2023/01/26 08:35:33;;;;;;;66.00;16.00;;;;;;;-145.18;100.00;60484.78;5052602;28;20021;-70
2023/01/26 08:37:58;;;;;;;68.47;17.17;;;;;;;-145.18;100.00;60484.78;5054203;28;20032;-72
2023/01/26 08:40:24;;;;;;;66.53;17.93;;;;;;;2.86;100.00;148167.88;5053804;28;20503;-70
2023/01/26 08:42:50;;;;;;;68.90;15.83;;;;;;;0.34;100.00;147531.84;5051239;28;20107;-69
2023/01/26 08:45:16;;;;;;;62.47;14.63;;;;;;;0.37;100.00;147538.28;5053797;28;20024;-70
2023/01/26 08:47:42;;;;;;;64.27;14.57;;;;;;;0.34;100.00;147531.84;5054001;28;20024;-69
2023/01/26 08:50:08;;;;;;;73.40;17.37;;;;;;;0.41;100.00;147549.81;5053640;28;20482;-70
2023/01/26 08:52:33;;;;;;;73.27;15.50;;;;;;;0.30;100.00;147521.59;5052767;28;20017;-69
2023/01/26 08:54:59;;;;;;;72.50;15.83;;;;;;;0.44;100.00;147556.25;5053781;28;20017;-70
2023/01/26 08:57:25;;;;;;;82.40;17.97;;;;;;;0.33;100.00;147529.28;5034905;28;20034;-70
2023/01/26 08:59:51;;;;;;;66.07;16.00;;;;;;;0.38;100.00;147542.13;5045839;28;20028;-70
2023/01/26 09:02:16;;;;;;;80.30;17.37;;;;;;;0.40;100.00;147547.25;5053675;28;20078;-70
2023/01/26 09:04:41;;;;;;;69.97;16.20;;;;;;;0.42;100.00;147552.38;5053314;28;20037;-70
2023/01/26 09:07:07;;;;;;;69.07;16.23;;;;;;;0.50;100.00;147571.66;5053380;28;20404;-69
2023/01/26 09:09:32;;;;;;;75.40;15.97;;;;;;;0.39;100.00;147543.41;5047020;28;20056;-70
2023/01/26 09:11:58;;;;;;;64.07;14.30;;;;;;;0.34;100.00;147531.84;5032506;28;20018;-69
2023/01/26 09:14:23;;;;;;;70.70;15.13;;;;;;;0.48;100.00;147566.50;5033434;28;20022;-68
2023/01/26 09:16:49;;;;;;;71.33;15.97;;;;;;;0.37;100.00;147539.56;5040355;28;20159;-68
2023/01/26 09:19:14;;;;;;;80.50;17.27;;;;;;;0.47;100.00;147563.94;5053495;28;20052;-68
2023/01/26 09:21:40;;;;;;;66.93;15.43;;;;;;;0.42;100.00;147552.38;5052844;28;20499;-69
2023/01/26 09:24:05;;;;;;;80.37;16.20;;;;;;;0.42;100.00;147552.38;5053000;28;20017;-69
2023/01/26 09:26:31;;;;;;;83.97;17.73;;;;;;;0.54;100.00;147581.91;5053331;28;20025;-70
2023/01/26 09:28:56;;;;;;;94.00;17.47;;;;;;;0.49;100.00;147570.38;5053192;28;20480;-70
2023/01/26 09:31:22;;;;;;;105.70;16.70;;;;;;;0.57;100.00;147590.88;5053169;28;20021;-69
2023/01/26 09:33:49;;;;;;;100.13;16.97;;;;;;;0.54;100.00;147581.91;5051945;28;20025;-71
2023/01/26 09:36:15;;;;;;;133.50;19.47;;;;;;;0.55;100.00;147584.47;5053181;28;20045;-70
2023/01/26 09:38:40;;;;;;;112.80;16.70;;;;;;;0.51;100.00;147575.50;5052668;28;20033;-69
2023/01/26 09:41:36;;;;;;;105.07;18.30;;;;;;;0.65;100.00;147608.88;5052862;28;20031;-70
2023/01/26 09:44:09;;;;;;;129.87;17.90;;;;;;;0.61;100.00;147599.91;5052797;28;20384;-69
2023/01/26 09:46:53;;;;;;;172.47;20.80;;;;;;;0.61;100.00;147598.56;5052800;28;20377;-70
2023/01/26 09:49:25;;;;;;;153.77;19.87;;;;;;;0.61;100.00;147598.56;5051755;28;20051;-69
2023/01/26 09:52:14;;;;;;;186.53;21.57;;;;;;;0.75;100.00;147634.56;5052472;28;20021;-69
2023/01/26 09:54:53;;;;;;;121.73;18.17;;;;;;;0.74;100.00;147632.00;5053000;28;20032;-70
2023/01/26 09:57:26;;;;;;;142.90;18.97;;;;;;;0.71;100.00;147624.25;5052303;28;20102;-69
2023/01/26 10:00:04;;;;;;;178.93;18.97;;;;;;;0.75;100.00;147634.56;5051916;28;20158;-69
2023/01/26 10:02:52;;;;;;;176.33;19.57;;;;;;;0.72;100.00;147626.81;5052399;28;20385;-69
2023/01/26 10:05:25;;;;;;;153.27;18.57;;;;;;;0.73;100.00;147629.44;5052082;28;20032;-69
2023/01/26 10:07:51;;;;;;;183.07;18.70;;;;;;;0.69;100.00;147619.13;5046995;28;20047;-69
2023/01/26 10:10:28;;;;;;;179.97;19.73;;;;;;;0.77;100.00;147639.69;5052363;28;20033;-69
2023/01/26 10:12:54;;;;;;;154.97;19.97;;;;;;;0.88;100.00;147667.94;5052395;28;20484;-69
2023/01/26 10:15:41;;;;;;;132.30;17.67;;;;;;;0.80;100.00;147648.66;5052319;28;20078;-69
2023/01/26 10:18:15;;;;;;;99.17;15.57;;;;;;;0.73;100.00;147629.44;5052418;28;20091;-69
2023/01/26 10:20:51;;;;;;;126.90;17.93;;;;;;;0.92;100.00;147678.19;5052360;28;20431;-69
2023/01/26 10:23:35;;;;;;;113.60;17.50;;;;;;;0.95;100.00;147685.88;5051569;28;20033;-69
2023/01/26 10:26:12;;;;;;;106.97;18.47;;;;;;;0.95;100.00;147685.88;5046738;28;20416;-70
2023/01/26 10:28:43;;;;;;;91.40;16.63;;;;;;;0.97;100.00;147691.06;5032359;28;20079;-69
2023/01/26 10:31:17;;;;;;;119.82;17.98;;;;;;;0.95;100.00;147685.88;5042657;28;20025;-69
2023/01/26 10:33:51;;;;;;;114.30;17.80;;;;;;;1.02;100.00;147703.88;5051984;28;20020;-69
2023/01/26 10:36:17;;;;;;;93.27;19.27;;;;;;;1.10;100.00;147724.44;5051808;28;20033;-69
2023/01/26 10:38:44;;;;;;;107.20;18.60;;;;;;;1.20;100.00;147747.53;5051757;28;20040;-69
2023/01/26 10:41:18;;;;;;;102.03;19.13;;;;;;;1.20;100.00;147747.53;5050899;28;20421;-69
2023/01/26 10:44:03;;;;;;;114.87;21.20;;;;;;;1.09;100.00;147721.88;5051767;28;20392;-70
2023/01/26 10:46:34;;;;;;;123.17;21.03;;;;;;;1.16;100.00;147739.84;5031762;28;20025;-70
2023/01/26 10:49:14;;;;;;;114.45;19.80;;;;;;;1.16;100.00;147739.84;5035900;28;20025;-69
2023/01/26 10:51:47;;;;;;;99.33;17.13;;;;;;;1.16;100.00;147739.84;5039717;28;20087;-69
2023/01/26 10:54:24;;;;;;;110.57;18.70;;;;;;;1.16;100.00;147739.84;5051575;28;20044;-69
2023/01/26 10:57:06;;;;;;;101.17;18.77;;;;;;;1.19;100.00;147746.25;5051717;28;20477;-69
2023/01/26 10:59:44;;;;;;;94.43;17.67;;;;;;;1.23;100.00;147755.28;5050981;28;20477;-70
2023/01/26 11:02:10;;;;;;;107.47;17.27;;;;;;;1.23;100.00;147755.28;5051318;28;20060;-69
2023/01/26 11:04:35;;;;;;;117.10;17.90;;;;;;;1.23;100.00;147755.28;5051354;28;20061;-70
2023/01/26 11:07:19;;;;;;;149.50;18.37;;;;;;;1.27;100.00;147766.81;5051480;28;20033;-70
2023/01/26 11:09:46;;;;;;;117.80;18.80;;;;;;;1.41;100.00;147801.50;5050145;28;20031;-69
2023/01/26 11:12:18;;;;;;;143.27;19.90;;;;;;;1.41;100.00;147801.50;5049023;28;20389;-70
2023/01/26 11:14:57;;;;;;;;;;;;;;;1.61;100.00;147852.91;5051838;28;20088;-69
2023/01/26 11:17:28;;;;;;;201.50;21.27;;;;;;;1.61;100.00;147852.91;5051182;28;19967;-69
2023/01/26 11:20:09;;;;;;;172.40;23.97;;;;;;;1.61;100.00;147852.91;5051412;28;20094;-69
2023/01/26 11:22:40;;;;;;;164.93;19.13;;;;;;;1.61;100.00;147852.91;5051389;28;20476;-70
2023/01/26 11:25:23;;;;;;;131.63;17.98;;;;;;;1.61;100.00;147852.91;5051092;28;20021;-69
2023/01/26 11:28:33;;;;;;;195.80;21.53;;;;;;;1.61;100.00;147852.91;5051424;28;20097;-69
2023/01/26 11:31:22;;;;;;;147.37;16.27;;;;;;;1.61;100.00;147852.91;5030433;28;20064;-69
2023/01/26 11:33:58;;;;;;;178.50;18.63;;;;;;;1.61;100.00;147852.91;5049925;28;20029;-70
2023/01/26 11:36:54;;;;;;;198.07;19.00;;;;;;;1.94;100.00;147935.13;5055480;28;20388;-70
2023/01/26 11:39:47;;;;;;;165.60;16.70;;;;;;;1.94;100.00;147935.13;5055101;28;20033;-70
2023/01/26 11:42:34;;;;;;;167.03;18.83;;;;;;;1.94;100.00;147935.13;5054984;28;20063;-70
2023/01/26 11:45:15;;;;;;;205.73;21.00;;;;;;;1.94;100.00;147935.13;5055028;28;20076;-70
2023/01/26 11:47:50;;;;;;;245.60;23.10;;;;;;;1.94;100.00;147935.13;5055173;28;20408;-70